Osage River (Missouri), Tuscumbia (06926080)

StateMissouriLatestUnknown (35700 cfs)
RiverOsage RiverRatingObservedEstimated
Updated2026-05-05 15:00 (1 hour ago)Flood - The river is flooding. Obstacles can be treacherous or deadly. The river should be avoided at this stage for casual trips and definitely for the inexperienced. Trips should be attempted only with protective gear and equipment.Flood(none)(none)
Discharge35700 cfs (median: 28900 cfs)High - The river is high and potentially dangerous, especially for the young and / or inexperienced. Normal stream obstacles are sometimes difficult to navigate. Extended distances can be attempted, but canoe travel may not be advisable.High(none)(none)
Height15.93 feetGood - Conditions are ideal for a canoe or kayak. Boats typically will drag on fewer than one-quarter of riffles, if at all, and portages are unnecessary or rare. Normal float lengths can be attempted without a problem.Good(none)(none)
TrendSteady (rising over 24 hours)Low - River is low but can still be floated. Some riffles are okay but most come with significant dragging and might need a portage. Float lengths should be reduced to accommodate low flow, dragging, and portages.Low(none)(none)
USGSExternal icon USGS Site (External icon Duck Duck Go Maps)Poor - River is too low to float comfortably. Most or all riffles will drag or must be portaged and some obstacles (such as slick shelf rock) cause undue problems. Avoid the river at this stage for casual paddling trips.Poor(none)(none)

Trending Data

Plot Image

Trips for Osage River (Missouri), Tuscumbia (06926080)

DateStartEndDistanceConditionDischargeHeightFishingDetails

A total of 0 rows are displayed.

Condition Descriptions

Fishing Conditions

Fish Species

Notes

Classic Trip List

The classic River Trips application is still available for use. It is updated with the new system using a data retrofit. It is no longer maintained. The original River Trips application is no longer updated (as of 1 Dec 2016) but can be checked for errors or for the condition of the data before it was converted to the new system.

Gauge Data Table

ObservationHeightDischargeMaximum
Discharge
Minimum
Discharge
Mean
Discharge
P05P10P20P25P50
(Median)
P75P80P90P95
2026-05-05 15:00 15.93 35700 50000 (2024) 1370 (2023) 26000 1400 2810 6020 28900 39900 45200 49700
2026-05-05 14:00 15.93 35700 50000 (2024) 1370 (2023) 26000 1400 2810 6020 28900 39900 45200 49700
2026-05-05 13:00 16.09 36200 50000 (2024) 1370 (2023) 26000 1400 2810 6020 28900 39900 45200 49700
2026-05-05 12:00 16.08 36200 50000 (2024) 1370 (2023) 26000 1400 2810 6020 28900 39900 45200 49700
2026-05-05 11:00 16.06 36100 50000 (2024) 1370 (2023) 26000 1400 2810 6020 28900 39900 45200 49700
2026-05-05 10:00 16.07 36200 50000 (2024) 1370 (2023) 26000 1400 2810 6020 28900 39900 45200 49700
2026-05-05 09:00 16.05 36100 50000 (2024) 1370 (2023) 26000 1400 2810 6020 28900 39900 45200 49700
2026-05-05 08:00 16.02 36000 50000 (2024) 1370 (2023) 26000 1400 2810 6020 28900 39900 45200 49700
2026-05-05 07:00 15.98 35900 50000 (2024) 1370 (2023) 26000 1400 2810 6020 28900 39900 45200 49700
2026-05-05 06:00 15.95 35800 50000 (2024) 1370 (2023) 26000 1400 2810 6020 28900 39900 45200 49700
2026-05-05 05:00 15.84 35400 50000 (2024) 1370 (2023) 26000 1400 2810 6020 28900 39900 45200 49700
2026-05-05 04:00 15.75 35200 50000 (2024) 1370 (2023) 26000 1400 2810 6020 28900 39900 45200 49700
2026-05-05 03:00 15.71 35000 50000 (2024) 1370 (2023) 26000 1400 2810 6020 28900 39900 45200 49700
2026-05-05 02:00 15.63 34800 50000 (2024) 1370 (2023) 26000 1400 2810 6020 28900 39900 45200 49700
2026-05-05 01:00 15.77 35200 50000 (2024) 1370 (2023) 26000 1400 2810 6020 28900 39900 45200 49700
2026-05-05 00:00 15.78 35300 50000 (2024) 1370 (2023) 26000 1400 2810 6020 28900 39900 45200 49700
2026-05-04 23:00 15.71 35000 50000 (2024) 1370 (2023) 26000 1400 2810 6020 28900 39900 45200 49700
2026-05-04 22:00 15.62 34800 55400 (2017) 1320 (2023) 26100 1330 3040 7580 26500 40900 46600 54700
2026-05-04 21:00 15.54 34500 55400 (2017) 1320 (2023) 26100 1330 3040 7580 26500 40900 46600 54700
2026-05-04 20:00 15.41 34100 55400 (2017) 1320 (2023) 26100 1330 3040 7580 26500 40900 46600 54700
2026-05-04 19:00 15.26 33600 55400 (2017) 1320 (2023) 26100 1330 3040 7580 26500 40900 46600 54700
2026-05-04 18:00 15.07 33000 55400 (2017) 1320 (2023) 26100 1330 3040 7580 26500 40900 46600 54700
2026-05-04 17:00 14.88 32500 55400 (2017) 1320 (2023) 26100 1330 3040 7580 26500 40900 46600 54700
2026-05-04 16:00 14.62 31700 55400 (2017) 1320 (2023) 26100 1330 3040 7580 26500 40900 46600 54700
2026-05-04 15:00 14.34 30800 55400 (2017) 1320 (2023) 26100 1330 3040 7580 26500 40900 46600 54700
2026-05-04 14:00 13.94 29600 55400 (2017) 1320 (2023) 26100 1330 3040 7580 26500 40900 46600 54700
2026-05-04 13:00 13.45 28200 55400 (2017) 1320 (2023) 26100 1330 3040 7580 26500 40900 46600 54700
2026-05-04 12:00 12.88 26500 55400 (2017) 1320 (2023) 26100 1330 3040 7580 26500 40900 46600 54700
2026-05-04 11:00 12.23 24600 55400 (2017) 1320 (2023) 26100 1330 3040 7580 26500 40900 46600 54700
2026-05-04 10:00 11.71 23200 55400 (2017) 1320 (2023) 26100 1330 3040 7580 26500 40900 46600 54700
2026-05-04 09:00 11.55 22700 55400 (2017) 1320 (2023) 26100 1330 3040 7580 26500 40900 46600 54700
2026-05-04 08:00 11.49 22600 55400 (2017) 1320 (2023) 26100 1330 3040 7580 26500 40900 46600 54700
2026-05-04 07:00 10.93 21000 55400 (2017) 1320 (2023) 26100 1330 3040 7580 26500 40900 46600 54700
2026-05-04 06:00 10.74 20500 55400 (2017) 1320 (2023) 26100 1330 3040 7580 26500 40900 46600 54700
2026-05-04 05:00 10.84 20800 55400 (2017) 1320 (2023) 26100 1330 3040 7580 26500 40900 46600 54700
2026-05-04 04:00 10.82 20700 55400 (2017) 1320 (2023) 26100 1330 3040 7580 26500 40900 46600 54700
2026-05-04 03:00 10.75 20600 55400 (2017) 1320 (2023) 26100 1330 3040 7580 26500 40900 46600 54700
2026-05-04 02:00 10.86 20800 55400 (2017) 1320 (2023) 26100 1330 3040 7580 26500 40900 46600 54700
2026-05-04 01:00 11.19 21700 55400 (2017) 1320 (2023) 26100 1330 3040 7580 26500 40900 46600 54700
2026-05-04 00:00 11.34 22200 55400 (2017) 1320 (2023) 26100 1330 3040 7580 26500 40900 46600 54700
2026-05-03 23:00 11.51 22600 55400 (2017) 1320 (2023) 26100 1330 3040 7580 26500 40900 46600 54700
2026-05-03 22:00 11.71 23200 56100 (2017) 1300 (2018) 26000 1310 3860 10600 27200 38100 41200 54700
2026-05-03 21:00 11.60 22900 56100 (2017) 1300 (2018) 26000 1310 3860 10600 27200 38100 41200 54700
2026-05-03 20:00 11.10 21500 56100 (2017) 1300 (2018) 26000 1310 3860 10600 27200 38100 41200 54700
2026-05-03 19:00 10.80 20700 56100 (2017) 1300 (2018) 26000 1310 3860 10600 27200 38100 41200 54700
2026-05-03 18:00 10.81 20700 56100 (2017) 1300 (2018) 26000 1310 3860 10600 27200 38100 41200 54700
2026-05-03 17:00 10.69 20400 56100 (2017) 1300 (2018) 26000 1310 3860 10600 27200 38100 41200 54700
2026-05-03 16:00 10.58 20100 56100 (2017) 1300 (2018) 26000 1310 3860 10600 27200 38100 41200 54700
2026-05-03 15:00 10.44 19700 56100 (2017) 1300 (2018) 26000 1310 3860 10600 27200 38100 41200 54700
2026-05-03 14:00 10.30 19400 56100 (2017) 1300 (2018) 26000 1310 3860 10600 27200 38100 41200 54700
2026-05-03 13:00 10.14 18900 56100 (2017) 1300 (2018) 26000 1310 3860 10600 27200 38100 41200 54700
2026-05-03 12:00 10.26 19300 56100 (2017) 1300 (2018) 26000 1310 3860 10600 27200 38100 41200 54700
2026-05-03 11:00 10.25 19200 56100 (2017) 1300 (2018) 26000 1310 3860 10600 27200 38100 41200 54700
2026-05-03 10:00 10.30 19400 56100 (2017) 1300 (2018) 26000 1310 3860 10600 27200 38100 41200 54700
2026-05-03 09:00 10.49 19900 56100 (2017) 1300 (2018) 26000 1310 3860 10600 27200 38100 41200 54700
2026-05-03 08:00 10.77 20600 56100 (2017) 1300 (2018) 26000 1310 3860 10600 27200 38100 41200 54700
2026-05-03 07:00 11.20 21800 56100 (2017) 1300 (2018) 26000 1310 3860 10600 27200 38100 41200 54700
2026-05-03 06:00 11.72 23200 56100 (2017) 1300 (2018) 26000 1310 3860 10600 27200 38100 41200 54700
2026-05-03 05:00 12.13 24300 56100 (2017) 1300 (2018) 26000 1310 3860 10600 27200 38100 41200 54700
2026-05-03 04:00 12.44 25200 56100 (2017) 1300 (2018) 26000 1310 3860 10600 27200 38100 41200 54700
2026-05-03 03:00 12.39 25100 56100 (2017) 1300 (2018) 26000 1310 3860 10600 27200 38100 41200 54700
2026-05-03 02:00 12.40 25100 56100 (2017) 1300 (2018) 26000 1310 3860 10600 27200 38100 41200 54700
2026-05-03 01:00 12.26 24700 56100 (2017) 1300 (2018) 26000 1310 3860 10600 27200 38100 41200 54700
2026-05-03 00:00 12.09 24200 56100 (2017) 1300 (2018) 26000 1310 3860 10600 27200 38100 41200 54700
2026-05-02 23:00 12.45 25300 56100 (2017) 1300 (2018) 26000 1310 3860 10600 27200 38100 41200 54700
2026-05-02 22:00 12.60 25700 59600 (2017) 1390 (2018) 25100 1450 3420 7370 25700 36000 36100 57300
2026-05-02 21:00 12.67 25900 59600 (2017) 1390 (2018) 25100 1450 3420 7370 25700 36000 36100 57300
2026-05-02 20:00 12.41 25100 59600 (2017) 1390 (2018) 25100 1450 3420 7370 25700 36000 36100 57300
2026-05-02 19:00 12.42 25200 59600 (2017) 1390 (2018) 25100 1450 3420 7370 25700 36000 36100 57300
2026-05-02 18:00 12.70 26000 59600 (2017) 1390 (2018) 25100 1450 3420 7370 25700 36000 36100 57300
2026-05-02 17:00 13.07 27000 59600 (2017) 1390 (2018) 25100 1450 3420 7370 25700 36000 36100 57300
2026-05-02 16:00 13.53 28400 59600 (2017) 1390 (2018) 25100 1450 3420 7370 25700 36000 36100 57300
2026-05-02 15:00 14.04 29900 59600 (2017) 1390 (2018) 25100 1450 3420 7370 25700 36000 36100 57300
2026-05-02 14:00 14.52 31400 59600 (2017) 1390 (2018) 25100 1450 3420 7370 25700 36000 36100 57300
2026-05-02 13:00 15.00 32800 59600 (2017) 1390 (2018) 25100 1450 3420 7370 25700 36000 36100 57300
2026-05-02 12:00 15.28 33700 59600 (2017) 1390 (2018) 25100 1450 3420 7370 25700 36000 36100 57300
2026-05-02 11:00 15.59 34700 59600 (2017) 1390 (2018) 25100 1450 3420 7370 25700 36000 36100 57300
2026-05-02 10:00 15.57 34600 59600 (2017) 1390 (2018) 25100 1450 3420 7370 25700 36000 36100 57300
2026-05-02 09:00 15.73 35100 59600 (2017) 1390 (2018) 25100 1450 3420 7370 25700 36000 36100 57300
2026-05-02 08:00 15.68 34900 59600 (2017) 1390 (2018) 25100 1450 3420 7370 25700 36000 36100 57300
2026-05-02 07:00 15.58 34600 59600 (2017) 1390 (2018) 25100 1450 3420 7370 25700 36000 36100 57300
2026-05-02 06:00 15.45 34200 59600 (2017) 1390 (2018) 25100 1450 3420 7370 25700 36000 36100 57300
2026-05-02 05:00 15.32 33800 59600 (2017) 1390 (2018) 25100 1450 3420 7370 25700 36000 36100 57300
2026-05-02 04:00 15.15 33300 59600 (2017) 1390 (2018) 25100 1450 3420 7370 25700 36000 36100 57300
2026-05-02 03:00 14.96 32700 59600 (2017) 1390 (2018) 25100 1450 3420 7370 25700 36000 36100 57300
2026-05-02 02:00 14.68 31800 59600 (2017) 1390 (2018) 25100 1450 3420 7370 25700 36000 36100 57300
2026-05-02 01:00 14.37 30900 59600 (2017) 1390 (2018) 25100 1450 3420 7370 25700 36000 36100 57300
2026-05-02 00:00 13.97 29700 59600 (2017) 1390 (2018) 25100 1450 3420 7370 25700 36000 36100 57300
2026-05-01 23:00 13.47 28200 59600 (2017) 1390 (2018) 25100 1450 3420 7370 25700 36000 36100 57300

A total of 89 rows are displayed for years 2016 through 2025.